Time;durP1;ratioP1;P1;durP2;ratioP2;P2;SDS_P1;SDS_P2;PMS_P1;PMS_P2;Temp;Humidity;BMP_temperature;BMP_pressure;BME280_temperature;BME280_humidity;BME280_pressure;Samples;Min_cycle;Max_cycle;Signal;HPM_P1;HPM_P2
2021/09/15 00:01:40;;;;;;;3.90;1.60;;;24.30;59.00;;;;;;2354020;53;20989;-72
2021/09/15 00:04:06;;;;;;;4.12;1.62;;;24.30;59.00;;;;;;2528037;52;20959;-72
2021/09/15 00:06:32;;;;;;;3.67;1.70;;;24.30;59.10;;;;;;2385342;52;22172;-72
2021/09/15 00:08:59;;;;;;;3.33;1.50;;;24.20;59.00;;;;;;2352418;52;21019;-74
2021/09/15 00:11:26;;;;;;;2.80;1.50;;;24.20;59.10;;;;;;2381774;52;22063;-74
2021/09/15 00:13:52;;;;;;;2.47;1.27;;;24.20;59.10;;;;;;2463203;52;21081;-73
2021/09/15 00:16:18;;;;;;;2.50;1.40;;;24.20;59.10;;;;;;2357005;52;20967;-73
2021/09/15 00:18:44;;;;;;;2.40;1.30;;;24.20;59.20;;;;;;2353611;53;20969;-72
2021/09/15 00:21:11;;;;;;;2.70;1.60;;;24.10;59.10;;;;;;2424515;52;22033;-72
2021/09/15 00:23:37;;;;;;;3.10;1.73;;;24.10;59.20;;;;;;2356829;52;21404;-73
2021/09/15 00:26:06;;;;;;;2.80;1.58;;;24.10;59.20;;;;;;2352960;53;21013;-76
2021/09/15 00:28:32;;;;;;;3.97;1.60;;;24.10;59.20;;;;;;2353390;53;20981;-72
2021/09/15 00:30:59;;;;;;;2.87;1.48;;;24.00;59.20;;;;;;2532716;52;21443;-74
2021/09/15 00:33:25;;;;;;;3.00;1.70;;;24.00;59.30;;;;;;2353794;53;20996;-72
2021/09/15 00:35:52;;;;;;;2.95;1.60;;;24.00;59.40;;;;;;2356882;53;20981;-73
2021/09/15 00:38:18;;;;;;;2.70;1.60;;;24.00;59.40;;;;;;2355545;52;21495;-73
2021/09/15 00:40:45;;;;;;;2.50;1.30;;;24.00;59.50;;;;;;2421800;52;22065;-73
2021/09/15 00:43:11;;;;;;;2.80;1.45;;;23.90;59.50;;;;;;2576302;52;21379;-72
2021/09/15 00:45:37;;;;;;;4.47;1.62;;;23.90;59.50;;;;;;2352918;53;20918;-72
2021/09/15 00:48:04;;;;;;;3.03;1.65;;;23.90;59.50;;;;;;2442720;52;20978;-74
2021/09/15 01:09:50;;;;;;;2.83;1.33;;;23.90;59.60;;;;;;2354228;52;20978;-72
2021/09/15 01:12:16;;;;;;;2.83;1.58;;;23.80;59.10;;;;;;2587300;52;20946;-72
2021/09/15 01:14:42;;;;;;;3.28;1.70;;;23.70;59.30;;;;;;2407982;52;21081;-72
2021/09/15 01:17:08;;;;;;;3.67;1.92;;;23.70;59.50;;;;;;2337341;53;20977;-72
2021/09/15 01:19:35;;;;;;;3.90;2.10;;;23.60;59.70;;;;;;2357235;52;22058;-72
2021/09/15 01:22:01;;;;;;;3.50;1.92;;;23.70;60.00;;;;;;2352896;53;21320;-75
2021/09/15 01:24:29;;;;;;;3.75;2.20;;;23.60;60.00;;;;;;2361268;52;20951;-72
2021/09/15 01:26:56;;;;;;;3.47;2.20;;;23.60;60.10;;;;;;2582019;52;20946;-75
2021/09/15 01:29:28;;;;;;;3.78;2.15;;;23.60;60.10;;;;;;2360035;52;20947;-72
2021/09/15 01:32:06;;;;;;;3.53;2.10;;;23.60;60.30;;;;;;2347184;53;20957;-72
2021/09/15 01:34:37;;;;;;;4.12;2.20;;;23.60;60.40;;;;;;2333719;53;21021;-72
2021/09/15 01:37:04;;;;;;;3.37;2.15;;;23.50;60.30;;;;;;2334072;53;21033;-73
2021/09/15 01:39:31;;;;;;;4.60;2.42;;;23.50;60.30;;;;;;2456829;52;20918;-72
2021/09/15 01:41:58;;;;;;;4.03;2.20;;;23.50;60.30;;;;;;2353114;52;21034;-72
2021/09/15 01:44:38;;;;;;;3.58;2.10;;;23.50;60.40;;;;;;2406065;52;20965;-75
2021/09/15 01:47:07;;;;;;;3.80;2.22;;;23.50;60.80;;;;;;2327626;53;21327;-72
2021/09/15 01:49:33;;;;;;;5.47;2.33;;;23.50;60.70;;;;;;2576181;52;21468;-72
2021/09/15 01:52:00;;;;;;;3.35;2.00;;;23.50;60.80;;;;;;2340577;53;20984;-72
2021/09/15 01:54:27;;;;;;;5.18;2.35;;;23.40;60.80;;;;;;2357045;53;21323;-70
2021/09/15 01:56:56;;;;;;;3.37;1.83;;;23.40;60.80;;;;;;2352614;53;22101;-72
2021/09/15 01:59:22;;;;;;;3.78;2.28;;;23.40;60.90;;;;;;2356940;52;20971;-72
2021/09/15 02:01:49;;;;;;;3.10;1.95;;;23.40;60.90;;;;;;2351758;52;21028;-72
2021/09/15 02:04:15;;;;;;;4.62;2.20;;;23.40;61.00;;;;;;2351898;53;20938;-72
2021/09/15 02:06:41;;;;;;;4.20;2.70;;;23.40;61.10;;;;;;2500678;52;20947;-75
2021/09/15 02:09:08;;;;;;;3.95;2.50;;;23.40;61.20;;;;;;2353825;53;20974;-71
2021/09/15 02:11:35;;;;;;;3.85;2.20;;;23.40;61.30;;;;;;2338118;52;20898;-72
2021/09/15 02:14:01;;;;;;;4.00;2.40;;;23.40;61.30;;;;;;2352639;52;21021;-72
2021/09/15 02:16:28;;;;;;;3.35;1.95;;;23.40;61.50;;;;;;2429612;52;20993;-72
2021/09/15 02:18:54;;;;;;;3.28;1.80;;;23.40;61.40;;;;;;2535083;52;21082;-73
2021/09/15 02:21:22;;;;;;;3.00;1.80;;;23.50;61.60;;;;;;2341115;53;20914;-74
2021/09/15 02:23:48;;;;;;;2.67;1.42;;;23.40;61.50;;;;;;2353077;53;21581;-76
2021/09/15 02:26:14;;;;;;;3.42;1.90;;;23.40;61.50;;;;;;2353056;53;21057;-72
2021/09/15 02:28:41;;;;;;;2.60;1.50;;;23.40;61.60;;;;;;2352888;53;21092;-71
2021/09/15 02:31:07;;;;;;;3.03;1.50;;;23.50;61.80;;;;;;2352662;52;20985;-76
2021/09/15 02:33:36;;;;;;;3.45;1.65;;;23.40;61.80;;;;;;2352671;53;21009;-73
2021/09/15 02:36:02;;;;;;;3.62;1.40;;;23.50;62.20;;;;;;2357798;52;20949;-71
2021/09/15 02:38:28;;;;;;;3.75;1.80;;;23.50;62.10;;;;;;2526162;52;21592;-72
2021/09/15 02:40:55;;;;;;;5.20;1.70;;;23.50;62.20;;;;;;2391490;52;21417;-71
2021/09/15 02:43:21;;;;;;;3.15;1.70;;;23.50;62.30;;;;;;2354816;53;21476;-73
2021/09/15 02:45:47;;;;;;;2.97;1.40;;;23.50;62.40;;;;;;2357890;52;21445;-71
2021/09/15 02:48:14;;;;;;;5.65;1.58;;;23.50;62.40;;;;;;2431208;52;21215;-72
2021/09/15 02:50:40;;;;;;;3.83;1.70;;;23.60;62.40;;;;;;2353749;53;21070;-73
2021/09/15 02:53:09;;;;;;;3.85;1.60;;;23.60;62.40;;;;;;2351832;53;20985;-74
2021/09/15 02:55:35;;;;;;;2.90;1.70;;;23.60;62.40;;;;;;2354552;52;21541;-72
2021/09/15 02:58:03;;;;;;;3.10;1.70;;;23.70;62.50;;;;;;2352153;53;20966;-74
2021/09/15 03:00:30;;;;;;;3.17;1.80;;;23.60;62.40;;;;;;2361353;52;21042;-73
2021/09/15 03:02:56;;;;;;;2.67;1.35;;;23.70;62.50;;;;;;2346758;53;21362;-75
2021/09/15 03:05:23;;;;;;;3.67;1.70;;;23.70;62.40;;;;;;2385725;52;20946;-72
2021/09/15 03:07:49;;;;;;;4.15;1.87;;;23.80;62.50;;;;;;2352115;53;22067;-68
2021/09/15 03:10:15;;;;;;;3.03;1.50;;;23.80;62.50;;;;;;2352339;53;20929;-75
2021/09/15 03:12:42;;;;;;;3.60;1.75;;;23.80;62.40;;;;;;2373566;52;20954;-71
2021/09/15 03:15:09;;;;;;;4.50;2.25;;;23.80;62.40;;;;;;2352314;53;20937;-72
2021/09/15 03:17:35;;;;;;;3.53;1.70;;;23.90;62.50;;;;;;2372547;52;20952;-73
2021/09/15 03:20:01;;;;;;;4.20;1.85;;;23.90;62.60;;;;;;2357050;52;20967;-72
2021/09/15 03:22:28;;;;;;;3.83;1.83;;;23.90;62.30;;;;;;2351715;53;20946;-71
2021/09/15 03:24:55;;;;;;;2.95;1.48;;;23.90;62.30;;;;;;2352868;53;20961;-73
2021/09/15 03:27:21;;;;;;;3.47;1.70;;;24.00;62.40;;;;;;2352495;53;20942;-71
2021/09/15 03:29:48;;;;;;;4.15;1.90;;;24.00;62.30;;;;;;2352619;53;20926;-71
2021/09/15 03:32:17;;;;;;;3.22;1.80;;;24.00;62.20;;;;;;2354761;52;20958;-71
2021/09/15 03:34:43;;;;;;;2.85;1.50;;;24.10;62.30;;;;;;2366497;53;20917;-72
2021/09/15 03:37:10;;;;;;;3.50;1.73;;;24.10;62.20;;;;;;2480538;52;20950;-71
2021/09/15 03:39:37;;;;;;;4.80;2.35;;;24.10;62.20;;;;;;2351559;52;21034;-71
2021/09/15 03:42:03;;;;;;;2.75;1.48;;;24.10;62.10;;;;;;2356629;52;21018;-72
2021/09/15 03:44:29;;;;;;;3.28;1.50;;;24.20;62.20;;;;;;2336778;53;20997;-71
2021/09/15 03:46:56;;;;;;;2.60;1.60;;;24.20;62.20;;;;;;2338956;53;20957;-72
2021/09/15 03:49:22;;;;;;;3.55;1.70;;;24.20;62.10;;;;;;2421369;52;20950;-74
2021/09/15 03:51:51;;;;;;;3.20;1.77;;;24.20;62.00;;;;;;2351766;52;21008;-71
2021/09/15 03:54:17;;;;;;;3.33;1.80;;;24.30;62.00;;;;;;2329552;53;22001;-71
2021/09/15 03:56:44;;;;;;;3.00;1.65;;;24.30;62.00;;;;;;2360236;52;21352;-71
2021/09/15 03:59:10;;;;;;;3.12;1.55;;;24.30;61.90;;;;;;2346615;53;21549;-72
2021/09/15 04:01:36;;;;;;;5.20;1.62;;;24.30;61.90;;;;;;2352808;52;21014;-72
2021/09/15 04:04:03;;;;;;;3.50;1.80;;;24.30;61.80;;;;;;2348797;53;21883;-73
2021/09/15 04:06:29;;;;;;;3.08;1.70;;;24.30;61.80;;;;;;2349062;52;20933;-72
2021/09/15 04:08:55;;;;;;;3.70;1.73;;;24.30;61.70;;;;;;2349886;53;21021;-71
2021/09/15 04:11:21;;;;;;;3.37;1.75;;;24.30;61.70;;;;;;2349472;53;20962;-71
2021/09/15 04:13:48;;;;;;;4.22;2.00;;;24.30;61.70;;;;;;2353180;53;20931;-71
2021/09/15 04:16:14;;;;;;;3.80;2.03;;;24.40;61.70;;;;;;2345556;53;21409;-72
2021/09/15 04:18:40;;;;;;;3.53;1.95;;;24.40;61.70;;;;;;2426824;52;20975;-72
2021/09/15 04:21:07;;;;;;;3.17;2.00;;;24.40;62.00;;;;;;2344983;53;20938;-72
2021/09/15 04:33:01;;;;;;;3.97;1.83;;;24.40;61.60;;;;;;2338097;53;21086;-72
2021/09/15 04:35:27;;;;;;;3.50;2.08;;;24.40;61.60;;;;;;2417216;53;20939;-72
2021/09/15 04:37:54;;;;;;;4.50;2.42;;;24.40;61.60;;;;;;2395822;52;21025;-73
2021/09/15 04:40:20;;;;;;;3.17;1.85;;;24.40;61.70;;;;;;2345741;53;21411;-72
2021/09/15 04:42:46;;;;;;;4.37;2.33;;;24.30;61.60;;;;;;2573125;52;20973;-72
2021/09/15 04:45:13;;;;;;;4.40;2.10;;;24.30;61.70;;;;;;2349369;52;21360;-72
2021/09/15 04:47:39;;;;;;;4.32;1.95;;;24.30;61.80;;;;;;2348909;52;22148;-73
2021/09/15 04:50:05;;;;;;;3.65;1.85;;;24.20;61.80;;;;;;2344520;53;20956;-75
2021/09/15 04:52:32;;;;;;;3.80;1.87;;;24.20;61.80;;;;;;2351487;53;22080;-74
2021/09/15 04:54:58;;;;;;;3.65;2.22;;;24.20;61.80;;;;;;2339033;53;20939;-71
2021/09/15 04:57:25;;;;;;;3.83;1.85;;;24.10;61.90;;;;;;2331558;53;21433;-72
2021/09/15 04:59:51;;;;;;;4.25;1.95;;;24.10;62.00;;;;;;2336171;53;20957;-72
2021/09/15 05:02:17;;;;;;;3.80;2.10;;;24.00;61.90;;;;;;2526975;52;20994;-74
2021/09/15 05:04:44;;;;;;;4.03;1.98;;;24.00;62.00;;;;;;2331306;53;20977;-71
2021/09/15 05:07:13;;;;;;;5.05;2.40;;;23.90;62.10;;;;;;2492077;52;21385;-70
2021/09/15 05:09:39;;;;;;;4.22;1.92;;;23.90;62.20;;;;;;2328231;53;20963;-71
2021/09/15 05:12:05;;;;;;;13.13;2.33;;;23.80;62.20;;;;;;2343065;53;21393;-70
2021/09/15 05:14:32;;;;;;;3.80;2.25;;;23.80;62.30;;;;;;2491662;52;21097;-70
2021/09/15 05:16:58;;;;;;;5.25;2.33;;;23.70;62.30;;;;;;2343323;53;20962;-69
2021/09/15 05:19:24;;;;;;;3.47;2.05;;;23.60;62.40;;;;;;2346956;53;20970;-71
2021/09/15 05:21:51;;;;;;;3.42;2.08;;;23.60;62.50;;;;;;2342007;53;22101;-69
2021/09/15 05:24:17;;;;;;;4.75;2.17;;;23.60;62.60;;;;;;2342132;53;20942;-71
2021/09/15 05:26:43;;;;;;;3.75;2.20;;;23.50;62.70;;;;;;2342371;53;20949;-70
2021/09/15 05:29:09;;;;;;;3.87;1.92;;;23.50;62.80;;;;;;2346696;52;20986;-70
2021/09/15 05:31:36;;;;;;;4.93;1.98;;;23.50;62.90;;;;;;2341765;53;20925;-71
2021/09/15 05:34:02;;;;;;;3.75;2.08;;;23.40;63.00;;;;;;2341900;52;20958;-71
2021/09/15 05:36:28;;;;;;;3.15;1.85;;;23.40;63.10;;;;;;2342037;53;20945;-70
2021/09/15 05:38:54;;;;;;;5.05;2.20;;;23.40;63.30;;;;;;2346712;53;20966;-72
2021/09/15 05:41:21;;;;;;;3.20;1.77;;;23.40;63.30;;;;;;2346745;52;20987;-72
2021/09/15 05:43:47;;;;;;;3.47;1.50;;;23.40;63.40;;;;;;2337659;53;21029;-70
2021/09/15 05:46:13;;;;;;;4.70;1.85;;;23.40;63.60;;;;;;2342158;53;21278;-70
2021/09/15 05:48:40;;;;;;;3.53;2.05;;;23.40;63.70;;;;;;2342721;53;20914;-71
2021/09/15 05:51:06;;;;;;;3.65;2.00;;;23.40;63.80;;;;;;2592785;52;21078;-70
2021/09/15 05:53:32;;;;;;;4.87;2.40;;;23.30;63.80;;;;;;2342711;53;21352;-71
2021/09/15 05:55:58;;;;;;;4.53;2.10;;;23.40;63.90;;;;;;2351161;52;21302;-72
2021/09/15 05:58:25;;;;;;;3.35;1.87;;;23.40;64.00;;;;;;2343172;53;20942;-72
2021/09/15 06:00:51;;;;;;;4.72;2.00;;;23.40;64.00;;;;;;2349896;52;20929;-69
2021/09/15 06:03:17;;;;;;;5.43;2.20;;;23.40;64.10;;;;;;2354987;52;21001;-72
2021/09/15 06:05:43;;;;;;;3.33;1.87;;;23.40;64.10;;;;;;2396614;52;20971;-72
2021/09/15 06:08:10;;;;;;;5.03;2.28;;;23.40;64.10;;;;;;2337699;53;20949;-70
2021/09/15 06:10:36;;;;;;;3.28;1.90;;;23.40;64.20;;;;;;2335893;52;21544;-73
2021/09/15 06:13:02;;;;;;;5.07;2.17;;;23.40;64.20;;;;;;2369977;52;21018;-71
2021/09/15 06:15:29;;;;;;;4.40;1.90;;;23.40;64.20;;;;;;2337587;52;21378;-71
2021/09/15 06:18:00;;;;;;;4.30;2.00;;;23.40;64.20;;;;;;2334913;53;21791;-72
2021/09/15 06:20:26;;;;;;;3.58;1.95;;;23.50;64.30;;;;;;2463170;52;20972;-73
2021/09/15 06:22:52;;;;;;;4.22;1.80;;;23.40;64.20;;;;;;2338777;52;20943;-73
2021/09/15 06:25:20;;;;;;;4.12;1.90;;;23.50;64.50;;;;;;2398670;53;21096;-73
2021/09/15 06:27:46;;;;;;;4.37;1.98;;;23.50;64.40;;;;;;2334476;53;20949;-74
2021/09/15 06:30:12;;;;;;;5.00;2.30;;;23.50;64.50;;;;;;2344799;53;22095;-71
2021/09/15 06:32:39;;;;;;;3.75;1.95;;;23.50;64.50;;;;;;2343809;53;21017;-71
2021/09/15 06:35:05;;;;;;;4.60;2.50;;;23.50;64.50;;;;;;2346873;53;21037;-71
2021/09/15 06:37:32;;;;;;;4.40;2.70;;;23.50;64.50;;;;;;2337378;53;21009;-72
2021/09/15 06:39:58;;;;;;;4.75;2.33;;;23.50;64.60;;;;;;2348114;52;21626;-74
2021/09/15 06:42:25;;;;;;;4.20;2.25;;;23.50;64.60;;;;;;2342939;53;20997;-72
2021/09/15 06:44:51;;;;;;;4.53;2.17;;;23.50;64.70;;;;;;2344043;53;21028;-70
2021/09/15 06:47:17;;;;;;;2.95;1.70;;;23.50;64.70;;;;;;2347687;52;21603;-72
2021/09/15 06:49:43;;;;;;;4.05;1.70;;;23.50;64.80;;;;;;2344472;53;20942;-72
2021/09/15 06:52:09;;;;;;;3.95;1.80;;;23.50;64.90;;;;;;2344557;53;20957;-71
2021/09/15 06:54:36;;;;;;;3.67;1.83;;;23.50;65.00;;;;;;2504772;52;20958;-72
2021/09/15 06:57:02;;;;;;;4.75;2.33;;;23.50;65.00;;;;;;2345448;52;21021;-71
2021/09/15 06:59:28;;;;;;;6.55;2.10;;;23.50;65.10;;;;;;2344869;53;21400;-72
2021/09/15 07:01:55;;;;;;;3.90;1.77;;;23.50;65.20;;;;;;2349298;52;20982;-73
2021/09/15 07:04:21;;;;;;;2.75;1.50;;;23.40;65.10;;;;;;2335974;53;20993;-72
2021/09/15 07:06:47;;;;;;;3.58;1.80;;;23.50;65.30;;;;;;2341303;53;20966;-71
2021/09/15 07:09:13;;;;;;;3.50;1.92;;;23.50;65.40;;;;;;2342643;52;20962;-71
2021/09/15 07:11:40;;;;;;;3.75;1.98;;;23.50;65.40;;;;;;2351869;53;21034;-72
2021/09/15 07:14:09;;;;;;;3.60;1.62;;;23.50;65.50;;;;;;2338643;53;21041;-71
2021/09/15 07:16:35;;;;;;;3.45;1.52;;;23.60;65.60;;;;;;2348035;52;21345;-72
2021/09/15 07:19:01;;;;;;;2.72;1.40;;;23.60;65.60;;;;;;2350573;52;22090;-72
2021/09/15 07:21:27;;;;;;;4.03;1.70;;;23.60;65.60;;;;;;2381227;52;22157;-73
2021/09/15 07:23:54;;;;;;;3.10;1.52;;;23.60;65.60;;;;;;2341876;53;21044;-73
2021/09/15 07:26:20;;;;;;;3.10;1.70;;;23.60;65.70;;;;;;2404441;53;21021;-73
2021/09/15 07:28:46;;;;;;;5.25;1.60;;;23.70;65.90;;;;;;2344619;53;21008;-74
2021/09/15 07:31:12;;;;;;;3.60;1.50;;;23.70;66.00;;;;;;2345470;53;20981;-72
2021/09/15 07:33:39;;;;;;;3.87;1.80;;;23.70;66.00;;;;;;2446010;52;21130;-73
2021/09/15 07:36:05;;;;;;;3.72;1.70;;;23.80;66.20;;;;;;2326033;53;21045;-73
2021/09/15 07:38:33;;;;;;;3.20;1.60;;;23.80;66.30;;;;;;2348835;52;20953;-74
2021/09/15 07:40:59;;;;;;;5.18;1.90;;;23.80;66.30;;;;;;2347307;52;21001;-74
2021/09/15 07:43:26;;;;;;;3.35;1.90;;;23.80;66.30;;;;;;2348050;52;20976;-72
2021/09/15 07:45:52;;;;;;;6.57;2.42;;;23.90;66.40;;;;;;2391621;52;20930;-72
2021/09/15 07:48:18;;;;;;;4.25;1.92;;;23.90;66.40;;;;;;2348502;53;21356;-71
2021/09/15 07:50:44;;;;;;;3.60;1.85;;;23.90;66.50;;;;;;2448723;52;20969;-73
2021/09/15 07:53:11;;;;;;;3.17;1.87;;;24.00;66.60;;;;;;2365363;52;21006;-72
2021/09/15 07:55:38;;;;;;;3.50;1.75;;;24.00;66.70;;;;;;2344098;53;20925;-72
2021/09/15 07:58:04;;;;;;;3.00;1.60;;;24.00;66.70;;;;;;2343745;53;21107;-71
2021/09/15 08:00:30;;;;;;;3.20;1.50;;;24.10;66.80;;;;;;2350799;53;20951;-72
2021/09/15 08:02:56;;;;;;;3.62;1.90;;;24.10;66.60;;;;;;2339116;52;20962;-73
2021/09/15 08:05:23;;;;;;;3.58;1.83;;;24.10;66.50;;;;;;2343574;53;22008;-72
2021/09/15 08:07:49;;;;;;;4.43;1.35;;;24.10;66.30;;;;;;2343723;52;20997;-73
2021/09/15 08:10:16;;;;;;;3.92;1.77;;;24.20;66.40;;;;;;2407584;52;20934;-73
2021/09/15 08:12:43;;;;;;;4.87;1.77;;;24.20;66.20;;;;;;2341410;52;20981;-72
2021/09/15 08:15:09;;;;;;;3.83;2.28;;;24.20;66.10;;;;;;2592836;52;22291;-72
2021/09/15 08:17:38;;;;;;;4.80;1.70;;;24.30;66.00;;;;;;2344191;53;21035;-71
2021/09/15 08:20:05;;;;;;;3.37;1.60;;;24.30;66.00;;;;;;2344144;53;20935;-72
2021/09/15 08:22:31;;;;;;;4.18;1.62;;;24.40;66.10;;;;;;2343916;53;21930;-70
2021/09/15 08:24:58;;;;;;;4.10;1.73;;;24.30;65.90;;;;;;2343724;53;20977;-71
2021/09/15 08:27:24;;;;;;;3.42;1.48;;;24.30;65.90;;;;;;2344004;52;20981;-71
2021/09/15 08:29:50;;;;;;;4.05;1.95;;;24.40;66.00;;;;;;2348785;52;20947;-71
2021/09/15 08:32:17;;;;;;;4.10;1.50;;;24.40;65.80;;;;;;2344043;53;20976;-72
2021/09/15 08:34:43;;;;;;;3.60;1.87;;;24.40;65.60;;;;;;2362862;52;20978;-72
2021/09/15 08:37:09;;;;;;;2.97;1.87;;;24.50;65.50;;;;;;2350405;53;20999;-72
2021/09/15 08:39:36;;;;;;;4.68;1.80;;;24.50;65.40;;;;;;2337275;53;20951;-71
2021/09/15 08:42:02;;;;;;;3.28;2.00;;;24.50;65.30;;;;;;2347921;53;20949;-69
2021/09/15 08:44:28;;;;;;;3.87;1.98;;;24.50;65.30;;;;;;2341146;53;21001;-72
2021/09/15 08:46:57;;;;;;;4.10;1.95;;;24.60;65.40;;;;;;2337857;53;20933;-72
2021/09/15 08:49:23;;;;;;;3.08;1.60;;;24.60;65.10;;;;;;2351760;52;20949;-72
2021/09/15 08:51:50;;;;;;;3.87;1.80;;;24.60;65.00;;;;;;2344042;53;20958;-71
2021/09/15 08:54:16;;;;;;;4.15;1.95;;;24.60;65.00;;;;;;2365015;52;21038;-72
2021/09/15 08:56:42;;;;;;;4.53;2.00;;;24.70;65.10;;;;;;2521795;52;20973;-73
2021/09/15 08:59:08;;;;;;;4.68;2.15;;;24.70;64.90;;;;;;2348629;52;21014;-70
2021/09/15 09:01:35;;;;;;;4.65;2.50;;;24.70;64.90;;;;;;2344014;53;20942;-72
2021/09/15 09:04:01;;;;;;;3.60;1.87;;;24.70;64.80;;;;;;2341998;52;21041;-71
2021/09/15 09:06:32;;;;;;;3.40;1.87;;;24.80;64.90;;;;;;2352810;52;20974;-72
2021/09/15 09:09:00;;;;;;;2.97;1.70;;;24.80;64.80;;;;;;2401100;52;21025;-72
2021/09/15 09:11:28;;;;;;;5.10;2.20;;;24.80;64.80;;;;;;2343629;53;21436;-72
2021/09/15 09:13:59;;;;;;;3.47;2.00;;;24.90;64.90;;;;;;2344081;53;20974;-73
2021/09/15 09:16:45;;;;;;;4.25;2.35;;;24.90;64.50;;;;;;2345166;52;20950;-71
2021/09/15 09:19:15;;;;;;;3.62;1.98;;;24.90;64.50;;;;;;2592591;52;20963;-74
2021/09/15 09:21:46;;;;;;;3.80;1.80;;;24.90;64.40;;;;;;2387426;52;20946;-71
2021/09/15 09:24:12;;;;;;;3.40;1.75;;;25.00;64.50;;;;;;2322512;53;20954;-72
2021/09/15 09:27:09;;;;;;;4.80;1.90;;;25.00;64.50;;;;;;2352896;52;20959;-72
2021/09/15 09:29:37;;;;;;;3.30;1.98;;;25.00;64.20;;;;;;2347110;52;21485;-73
2021/09/15 09:32:10;;;;;;;4.75;2.30;;;25.10;64.10;;;;;;2341517;52;20926;-72
2021/09/15 09:34:44;;;;;;;4.43;2.37;;;25.00;63.80;;;;;;2347964;53;20921;-72
2021/09/15 09:37:18;;;;;;;4.18;2.20;;;25.10;63.60;;;;;;2345932;52;20973;-72
2021/09/15 09:39:52;;;;;;;3.70;1.90;;;25.10;63.60;;;;;;2348668;52;21041;-72
2021/09/15 09:42:29;;;;;;;3.17;1.87;;;25.10;63.60;;;;;;2344066;53;20942;-72
2021/09/15 09:45:11;;;;;;;4.87;2.05;;;25.00;63.50;;;;;;2344548;53;21020;-75
2021/09/15 09:47:40;;;;;;;3.78;2.10;;;25.00;63.50;;;;;;2346771;53;21024;-72
2021/09/15 09:50:19;;;;;;;3.92;2.47;;;25.00;63.50;;;;;;2324642;53;21298;-72
2021/09/15 09:52:56;;;;;;;3.40;1.73;;;25.00;63.40;;;;;;2344019;52;21509;-71
2021/09/15 09:55:24;;;;;;;4.70;2.17;;;25.00;63.80;;;;;;2344302;52;21409;-71
2021/09/15 09:57:52;;;;;;;3.60;1.80;;;25.00;63.50;;;;;;2386358;52;20935;-72
2021/09/15 10:00:18;;;;;;;3.47;1.65;;;25.00;63.50;;;;;;2354779;53;21511;-72
2021/09/15 10:02:45;;;;;;;3.97;1.87;;;25.00;63.60;;;;;;2344004;52;20949;-72
2021/09/15 10:05:14;;;;;;;3.67;1.73;;;25.00;63.50;;;;;;2352459;52;21405;-72
2021/09/15 10:07:40;;;;;;;5.57;1.85;;;24.90;63.50;;;;;;2317532;53;20954;-72
2021/09/15 10:10:12;;;;;;;3.58;1.83;;;24.90;63.40;;;;;;2346243;53;20943;-74
2021/09/15 10:12:38;;;;;;;4.87;2.00;;;24.90;63.40;;;;;;2345819;53;20954;-72
2021/09/15 10:15:09;;;;;;;3.87;2.05;;;24.80;63.40;;;;;;2592396;52;20969;-72
2021/09/15 10:17:36;;;;;;;4.18;2.00;;;24.80;63.50;;;;;;2343590;53;20966;-72
2021/09/15 10:20:03;;;;;;;2.87;1.55;;;24.80;63.60;;;;;;2465420;52;20997;-72
2021/09/15 10:22:30;;;;;;;3.42;1.52;;;24.80;63.70;;;;;;2366899;52;20953;-72
2021/09/15 10:25:06;;;;;;;7.80;1.80;;;24.80;63.80;;;;;;2372936;52;20954;-73
2021/09/15 10:28:23;;;;;;;3.03;1.67;;;24.80;63.70;;;;;;2351782;52;20977;-74
2021/09/15 10:30:53;;;;;;;3.37;1.52;;;24.80;63.90;;;;;;2352639;53;21018;-73
2021/09/15 10:40:09;;;;;;;3.05;1.35;;;24.90;64.20;;;;;;2337336;53;20925;-71
2021/09/15 10:42:39;;;;;;;2.95;1.42;;;25.00;63.80;;;;;;2347458;52;21102;-73
2021/09/15 10:45:29;;;;;;;3.30;1.60;;;25.00;63.80;;;;;;2343948;53;21579;-72
2021/09/15 10:48:24;;;;;;;3.70;1.50;;;25.00;63.90;;;;;;2346539;53;21304;-72
2021/09/15 10:50:50;;;;;;;3.78;1.52;;;25.00;64.50;;;;;;2324025;53;20946;-72
2021/09/15 10:53:18;;;;;;;3.67;1.62;;;25.00;63.90;;;;;;2347823;52;20958;-71
2021/09/15 10:55:52;;;;;;;3.33;1.58;;;25.00;64.00;;;;;;2346981;52;21544;-70
2021/09/15 10:58:30;;;;;;;2.92;1.60;;;25.00;64.10;;;;;;2328878;53;20982;-71
2021/09/15 11:01:04;;;;;;;3.67;1.52;;;25.10;64.00;;;;;;2339225;53;20997;-71
2021/09/15 11:03:40;;;;;;;4.50;1.60;;;25.10;64.00;;;;;;2339749;53;21110;-70
2021/09/15 11:06:32;;;;;;;3.67;1.77;;;25.10;63.80;;;;;;2328136;53;20989;-71
2021/09/15 11:08:59;;;;;;;3.30;1.45;;;25.10;63.60;;;;;;2344515;53;21001;-70
2021/09/15 11:12:10;;;;;;;2.40;1.30;;;25.20;63.80;;;;;;2355517;52;21006;-71
2021/09/15 11:14:57;;;;;;;3.37;1.67;;;25.20;63.40;;;;;;2478471;52;21042;-70
2021/09/15 11:17:23;;;;;;;2.95;1.50;;;25.20;63.40;;;;;;2322030;53;21018;-72
2021/09/15 11:19:49;;;;;;;3.55;1.50;;;25.30;63.60;;;;;;2348351;52;20997;-73
2021/09/15 11:22:16;;;;;;;2.92;1.45;;;25.20;63.60;;;;;;2494038;52;20965;-72
2021/09/15 11:24:43;;;;;;;3.53;1.60;;;25.30;63.50;;;;;;2424404;52;1738757;-72
2021/09/15 11:27:09;;;;;;;4.03;2.00;;;25.30;63.50;;;;;;2331400;52;21048;-71
2021/09/15 11:29:51;;;;;;;3.12;1.83;;;25.30;63.40;;;;;;2344726;52;20996;-69
2021/09/15 11:32:18;;;;;;;3.03;1.40;;;25.40;63.30;;;;;;2348829;52;20974;-72
2021/09/15 11:34:45;;;;;;;3.33;1.60;;;25.40;63.40;;;;;;2340227;52;21100;-70
2021/09/15 11:37:31;;;;;;;4.00;1.90;;;25.40;63.30;;;;;;2354718;52;21022;-72
2021/09/15 11:40:05;;;;;;;3.47;1.65;;;25.50;62.80;;;;;;2345671;53;21068;-71
2021/09/15 11:42:35;;;;;;;4.97;1.60;;;25.50;63.00;;;;;;2350612;52;20970;-73
2021/09/15 11:46:02;;;;;;;3.42;1.60;;;25.50;63.10;;;;;;2345613;52;20933;-71
2021/09/15 11:48:29;;;;;;;3.42;1.65;;;25.50;62.80;;;;;;2346157;53;21339;-71
2021/09/15 11:50:55;;;;;;;2.87;1.70;;;25.50;63.00;;;;;;2519023;52;20961;-71
2021/09/15 11:53:23;;;;;;;2.80;1.40;;;25.60;63.00;;;;;;2345962;53;21325;-72
2021/09/15 11:55:58;;;;;;;5.28;1.77;;;25.60;63.00;;;;;;2346679;53;20942;-71
2021/09/15 11:58:25;;;;;;;2.65;1.42;;;25.60;63.10;;;;;;2355456;52;21026;-71
2021/09/15 12:00:51;;;;;;;3.30;1.48;;;25.70;63.20;;;;;;2334630;53;20954;-71
2021/09/15 12:03:25;;;;;;;2.50;1.20;;;25.70;63.20;;;;;;2346085;53;20954;-73
2021/09/15 12:05:51;;;;;;;2.70;1.45;;;25.80;63.20;;;;;;2351346;52;22041;-70
2021/09/15 12:08:18;;;;;;;3.25;1.60;;;25.80;63.10;;;;;;2351014;52;21432;-74
2021/09/15 12:10:45;;;;;;;2.45;1.40;;;25.90;63.30;;;;;;2498868;52;21025;-72
2021/09/15 12:13:11;;;;;;;3.05;1.33;;;25.90;63.30;;;;;;2348943;52;22297;-71
2021/09/15 12:15:50;;;;;;;2.80;1.42;;;26.00;63.40;;;;;;2388185;52;21356;-71
2021/09/15 12:18:16;;;;;;;3.90;1.42;;;26.10;62.60;;;;;;2348724;52;20961;-73
2021/09/15 12:20:47;;;;;;;3.05;1.40;;;26.20;62.90;;;;;;2540892;52;21012;-71
2021/09/15 12:23:14;;;;;;;2.67;1.42;;;26.20;62.50;;;;;;2326882;53;20947;-71
2021/09/15 12:25:53;;;;;;;3.10;1.58;;;26.30;62.30;;;;;;2331695;53;20943;-73
2021/09/15 12:28:23;;;;;;;3.35;1.95;;;26.40;61.40;;;;;;2345911;53;20958;-72
2021/09/15 12:30:49;;;;;;;3.37;2.00;;;26.40;61.20;;;;;;2346184;53;20965;-69
2021/09/15 12:33:37;;;;;;;4.22;2.00;;;26.60;61.30;;;;;;2350648;52;20956;-73
2021/09/15 12:36:19;;;;;;;5.65;1.80;;;26.60;60.30;;;;;;2460978;52;20960;-72
2021/09/15 12:38:57;;;;;;;5.12;1.80;;;26.70;60.00;;;;;;2349376;53;20974;-70
2021/09/15 12:41:24;;;;;;;3.53;1.77;;;26.70;60.00;;;;;;2351111;52;21042;-72
2021/09/15 12:44:00;;;;;;;4.53;2.40;;;26.70;60.50;;;;;;2346229;53;20950;-72
2021/09/15 12:46:30;;;;;;;3.90;1.90;;;26.70;60.10;;;;;;2422618;52;21001;-71
2021/09/15 12:48:58;;;;;;;3.62;2.10;;;26.80;59.80;;;;;;2350113;52;20950;-71
2021/09/15 12:51:25;;;;;;;3.10;1.60;;;26.80;59.80;;;;;;2347097;53;21025;-72
2021/09/15 12:53:54;;;;;;;2.83;1.37;;;26.80;59.60;;;;;;2351691;52;20983;-72
2021/09/15 12:56:23;;;;;;;3.25;1.52;;;26.80;59.50;;;;;;2346396;53;20954;-72
2021/09/15 12:58:52;;;;;;;2.87;1.55;;;26.80;59.30;;;;;;2347494;53;21048;-71
2021/09/15 13:01:22;;;;;;;4.25;1.40;;;26.80;59.20;;;;;;2508909;52;22191;-71
2021/09/15 13:03:55;;;;;;;2.62;1.40;;;26.80;59.40;;;;;;2343450;53;21557;-70
2021/09/15 13:06:26;;;;;;;3.05;1.65;;;26.80;59.50;;;;;;2353696;52;20970;-71
2021/09/15 13:08:53;;;;;;;3.17;1.80;;;26.90;59.20;;;;;;2324843;53;21969;-72
2021/09/15 13:11:20;;;;;;;3.53;1.50;;;26.80;59.30;;;;;;2354219;52;20955;-73
2021/09/15 13:13:46;;;;;;;2.20;1.30;;;26.80;59.40;;;;;;2334458;53;20941;-72
2021/09/15 13:16:13;;;;;;;2.80;1.33;;;26.90;59.50;;;;;;2351075;52;20946;-73
2021/09/15 13:18:39;;;;;;;3.47;1.60;;;26.90;59.50;;;;;;2594690;52;20959;-71
2021/09/15 13:21:05;;;;;;;3.42;1.60;;;27.00;59.40;;;;;;2345743;53;22019;-72
2021/09/15 13:23:31;;;;;;;3.85;1.42;;;27.00;59.30;;;;;;2345384;52;20965;-72
2021/09/15 13:25:58;;;;;;;3.10;1.48;;;27.00;59.10;;;;;;2350662;52;21329;-73
2021/09/15 13:28:28;;;;;;;3.85;2.00;;;27.10;58.90;;;;;;2345519;53;21124;-71